createdAt,value
2023-02-04T00:00:37.609Z,97173.47
2023-02-04T00:03:06.790Z,97179.66
2023-02-04T00:05:35.341Z,97177.56
2023-02-04T00:08:06.489Z,97169.69
2023-02-04T00:10:36.452Z,97182.84
2023-02-04T00:13:05.353Z,97179.38
2023-02-04T00:15:33.715Z,97186.19
2023-02-04T00:18:02.081Z,97183.75
2023-02-04T00:20:30.680Z,97186.28
2023-02-04T00:22:59.284Z,97187.88
2023-02-04T00:25:27.764Z,97194.56
2023-02-04T00:27:57.475Z,97187.34
2023-02-04T00:30:25.874Z,97193.91
2023-02-04T00:32:55.115Z,97200.81
2023-02-04T00:35:23.775Z,97201.28
2023-02-04T00:37:52.657Z,97206.88
2023-02-04T00:40:21.541Z,97196.78
2023-02-04T00:42:49.878Z,97194.88
2023-02-04T00:45:19.782Z,97198.63
2023-02-04T00:47:48.162Z,97205.19
2023-02-04T00:50:16.951Z,97210.06
2023-02-04T00:52:45.364Z,97229.53
2023-02-04T00:55:15.738Z,97233.00
2023-02-04T00:57:44.164Z,97226.50
2023-02-04T01:00:13.739Z,97232.66
2023-02-04T01:02:43.501Z,97238.50
2023-02-04T01:05:11.886Z,97244.34
2023-02-04T01:07:40.262Z,97251.59
2023-02-04T01:10:08.705Z,97247.69
2023-02-04T01:12:37.314Z,97253.56
2023-02-04T01:15:06.561Z,97250.75
2023-02-04T01:17:35.022Z,97248.53
2023-02-04T01:20:04.848Z,97250.03
2023-02-04T01:22:33.167Z,97259.66
2023-02-04T01:25:01.488Z,97257.03
2023-02-04T01:27:29.880Z,97249.03
2023-02-04T01:29:58.260Z,97272.50
2023-02-04T01:32:26.620Z,97266.06
2023-02-04T01:34:57.093Z,97261.22
2023-02-04T01:37:26.803Z,97265.94
2023-02-04T01:39:55.025Z,97268.72
2023-02-04T01:42:23.412Z,97269.84
2023-02-04T01:44:52.260Z,97264.13
2023-02-04T01:47:21.248Z,97268.72
2023-02-04T01:49:52.631Z,97265.13
2023-02-04T01:52:21.447Z,97270.38
2023-02-04T01:54:51.345Z,97276.53
2023-02-04T01:57:19.867Z,97283.88
2023-02-04T01:59:48.920Z,97283.16
2023-02-04T02:02:42.775Z,97287.94
2023-02-04T02:05:12.435Z,97294.38
2023-02-04T02:07:40.829Z,97286.47
2023-02-04T02:10:12.434Z,97296.22
2023-02-04T02:12:40.828Z,97302.84
2023-02-04T02:15:10.860Z,97290.59
2023-02-04T02:17:39.784Z,97309.50
2023-02-04T02:20:10.442Z,97305.44
2023-02-04T02:22:40.138Z,97323.69
2023-02-04T02:25:14.458Z,97316.41
2023-02-04T02:27:43.179Z,97320.88
2023-02-04T02:30:13.113Z,97320.56
2023-02-04T02:32:41.805Z,97320.00
2023-02-04T02:35:10.497Z,97324.97
2023-02-04T02:37:38.871Z,97330.34
2023-02-04T02:40:08.482Z,97320.00
2023-02-04T02:42:38.469Z,97332.09
2023-02-04T02:45:22.038Z,97325.22
2023-02-04T02:47:50.900Z,97325.97
2023-02-04T02:50:22.538Z,97344.91
2023-02-04T02:52:50.881Z,97340.09
2023-02-04T02:55:21.350Z,97345.34
2023-02-04T02:57:51.885Z,97342.56
2023-02-04T03:00:23.119Z,97354.13
2023-02-04T03:02:56.434Z,97354.16
2023-02-04T03:05:25.062Z,97359.31
2023-02-04T03:07:53.629Z,97367.09
2023-02-04T03:10:21.980Z,97358.34
2023-02-04T03:12:51.854Z,97363.75
2023-02-04T03:15:20.622Z,97363.53
2023-02-04T03:17:49.298Z,97379.94
2023-02-04T03:20:18.749Z,97378.72
2023-02-04T03:22:47.067Z,97376.41
2023-02-04T03:25:15.421Z,97374.13
2023-02-04T03:27:43.811Z,97375.84
2023-02-04T03:30:14.153Z,97371.03
2023-02-04T03:32:42.750Z,97395.84
2023-02-04T03:35:11.095Z,97379.59
2023-02-04T03:37:39.454Z,97400.09
2023-02-04T03:40:08.429Z,97400.91
2023-02-04T03:42:36.765Z,97402.56
2023-02-04T03:45:05.777Z,97407.84
2023-02-04T03:47:35.516Z,97417.19
2023-02-04T03:50:03.853Z,97426.91
2023-02-04T03:52:32.236Z,97419.41
2023-02-04T03:55:00.581Z,97432.09
2023-02-04T03:57:28.937Z,97421.25
2023-02-04T03:59:57.225Z,97437.97
2023-02-04T04:02:25.641Z,97428.94
2023-02-04T04:04:55.411Z,97434.31
2023-02-04T04:07:23.810Z,97449.09
2023-02-04T04:09:52.192Z,97453.91
2023-02-04T04:12:20.629Z,97448.25
2023-02-04T04:14:48.916Z,97458.22
2023-02-04T04:17:17.698Z,97461.88
2023-02-04T04:19:46.103Z,97441.53
2023-02-04T04:22:15.826Z,97442.00
2023-02-04T04:24:44.142Z,97439.94
2023-02-04T04:27:12.492Z,97433.88
2023-02-04T04:29:40.798Z,97445.63
2023-02-04T04:32:09.796Z,97451.84
2023-02-04T04:34:38.286Z,97444.78
2023-02-04T04:37:06.788Z,97448.16
2023-02-04T04:39:36.499Z,97448.56
2023-02-04T04:42:05.102Z,97462.94
2023-02-04T04:44:33.410Z,97466.09
2023-02-04T04:47:01.856Z,97469.41
2023-02-04T04:49:30.389Z,97484.06
2023-02-04T04:51:58.808Z,97488.25
2023-02-04T04:54:27.265Z,97484.84
2023-02-04T04:56:57.090Z,97482.19
2023-02-04T04:59:25.430Z,97484.22
2023-02-04T05:01:53.826Z,97487.69
2023-02-04T05:04:22.236Z,97498.16
2023-02-04T05:06:50.645Z,97494.88
2023-02-04T05:09:18.987Z,97496.09
2023-02-04T05:11:47.924Z,97506.44
2023-02-04T05:14:17.742Z,97508.38
2023-02-04T05:16:46.061Z,97506.09
2023-02-04T05:19:14.474Z,97504.25
2023-02-04T05:21:42.802Z,97525.25
2023-02-04T05:24:11.133Z,97531.91
2023-02-04T05:26:39.429Z,97526.69
2023-02-04T05:29:09.368Z,97531.38
2023-02-04T05:31:40.213Z,97544.31
2023-02-04T05:34:08.642Z,97544.22
2023-02-04T05:36:37.028Z,97545.28
2023-02-04T05:39:05.438Z,97537.72
2023-02-04T05:41:33.850Z,97555.13
2023-02-04T05:44:02.242Z,97558.72
2023-02-04T05:46:30.676Z,97556.44
2023-02-04T05:49:00.380Z,97559.91
2023-02-04T05:51:28.843Z,97566.41
2023-02-04T05:53:57.233Z,97575.75
2023-02-04T05:56:26.400Z,97577.78
2023-02-04T05:58:54.824Z,97579.72
2023-02-04T06:01:23.237Z,97588.59
2023-02-04T06:03:51.708Z,97593.63
2023-02-04T06:06:21.498Z,97596.63
2023-02-04T06:08:49.891Z,97594.00
2023-02-04T06:11:18.225Z,97602.66
2023-02-04T06:13:46.623Z,97601.78
2023-02-04T06:16:15.096Z,97603.81
2023-02-04T06:18:43.595Z,97607.47
2023-02-04T06:21:11.915Z,97598.13
2023-02-04T06:23:41.617Z,97618.88
2023-02-04T06:26:10.102Z,97628.09
2023-02-04T06:28:38.554Z,97636.31
2023-02-04T06:31:09.173Z,97636.75
2023-02-04T06:33:37.863Z,97627.72
2023-02-04T06:36:06.433Z,97633.13
2023-02-04T06:38:34.829Z,97629.19
2023-02-04T06:41:04.527Z,97632.84
2023-02-04T06:43:32.942Z,97631.78
2023-02-04T06:46:01.387Z,97635.69
2023-02-04T06:48:31.174Z,97633.56
2023-02-04T06:50:59.731Z,97631.91
2023-02-04T06:53:28.090Z,97632.84
2023-02-04T06:55:56.453Z,97636.56
2023-02-04T06:58:26.237Z,97641.59
2023-02-04T07:00:54.632Z,97649.03
2023-02-04T07:03:23.010Z,97638.34
2023-02-04T07:05:53.127Z,97648.34
2023-02-04T07:08:21.936Z,97653.91
2023-02-04T07:10:50.326Z,97660.31
2023-02-04T07:13:18.672Z,97669.69
2023-02-04T07:15:48.491Z,97666.94
2023-02-04T07:18:16.894Z,97670.59
2023-02-04T07:20:45.228Z,97669.63
2023-02-04T07:23:13.645Z,97674.53
2023-02-04T07:25:42.110Z,97687.72
2023-02-04T07:28:10.552Z,97686.53
2023-02-04T07:30:39.078Z,97696.72
2023-02-04T07:33:08.841Z,97698.44
2023-02-04T07:35:38.039Z,97702.00
2023-02-04T07:38:06.458Z,97710.16
2023-02-04T07:40:35.224Z,97724.09
2023-02-04T07:43:03.669Z,97728.00
2023-02-04T07:45:32.076Z,97732.91
2023-02-04T07:48:00.453Z,97727.84
2023-02-04T07:50:30.566Z,97726.66
2023-02-04T07:52:59.387Z,97729.66
2023-02-04T07:55:27.829Z,97734.13
2023-02-04T07:57:56.261Z,97741.22
2023-02-04T08:00:25.137Z,97743.25
2023-02-04T08:02:53.783Z,97743.59
2023-02-04T08:05:22.164Z,97747.44
2023-02-04T08:07:51.898Z,97743.41
2023-02-04T08:10:21.513Z,97755.69
2023-02-04T08:12:49.967Z,97755.94
2023-02-04T08:15:18.368Z,97759.97
2023-02-04T08:17:46.676Z,97773.06
2023-02-04T08:20:15.038Z,97781.78
2023-02-04T08:22:43.385Z,97776.75
2023-02-04T08:25:13.681Z,97769.59
2023-02-04T08:27:42.783Z,97769.81
2023-02-04T08:30:12.258Z,97777.25
2023-02-04T08:32:40.611Z,97774.50
2023-02-04T08:35:09.694Z,97788.75
2023-02-04T08:37:38.105Z,97788.69
2023-02-04T08:40:07.280Z,97785.53
2023-02-04T08:42:37.030Z,97796.72
2023-02-04T08:45:05.816Z,97799.72
2023-02-04T08:47:34.131Z,97803.91
2023-02-04T08:50:02.475Z,97803.91
2023-02-04T08:52:30.848Z,97806.78
2023-02-04T08:54:59.112Z,97798.00
2023-02-04T08:57:27.435Z,97796.13
2023-02-04T08:59:57.170Z,97800.31
2023-02-04T09:02:25.583Z,97798.22
2023-02-04T09:04:54.040Z,97814.19
2023-02-04T09:07:22.531Z,97819.03
2023-02-04T09:09:50.838Z,97822.44
2023-02-04T09:12:19.164Z,97827.03
2023-02-04T09:14:47.513Z,97832.41
2023-02-04T09:17:17.252Z,97843.72
2023-02-04T09:19:45.586Z,97855.63
2023-02-04T09:22:13.929Z,97870.63
2023-02-04T09:24:42.379Z,97890.03
2023-02-04T09:27:10.751Z,97884.53
2023-02-04T09:29:39.235Z,97886.53
2023-02-04T09:32:07.656Z,97887.19
2023-02-04T09:34:37.393Z,97897.38
2023-02-04T09:37:05.793Z,97896.03
2023-02-04T09:39:34.170Z,97901.09
2023-02-04T09:42:02.549Z,97905.84
2023-02-04T09:44:31.105Z,97903.53
2023-02-04T09:47:01.247Z,97901.56
2023-02-04T09:49:29.914Z,97905.56
2023-02-04T09:51:59.686Z,97909.41
2023-02-04T09:54:28.073Z,97894.09
2023-02-04T09:56:57.519Z,97910.16
2023-02-04T09:59:28.678Z,97905.66
2023-02-04T10:01:59.411Z,97916.31
2023-02-04T10:04:28.043Z,97912.91
2023-02-04T10:06:58.655Z,97913.22
2023-02-04T10:09:28.221Z,97916.75
2023-02-04T10:11:56.611Z,97917.00
2023-02-04T10:14:25.181Z,97917.06
2023-02-04T10:16:58.507Z,97920.31
2023-02-04T10:19:28.475Z,97919.50
2023-02-04T10:21:57.105Z,97932.34
2023-02-04T10:24:28.329Z,97926.63
2023-02-04T10:27:08.178Z,97908.78
2023-02-04T10:29:36.492Z,97920.19
2023-02-04T10:32:05.138Z,97927.56
2023-02-04T10:34:37.874Z,97932.59
2023-02-04T10:37:15.687Z,97934.31
2023-02-04T10:39:45.553Z,97930.34
2023-02-04T10:42:22.038Z,97933.44
2023-02-04T10:44:50.502Z,97936.81
2023-02-04T10:47:20.969Z,97934.97
2023-02-04T10:49:56.645Z,97928.59
2023-02-04T10:52:27.961Z,97925.50
2023-02-04T10:54:58.323Z,97928.31
2023-02-04T10:57:28.610Z,97917.28
2023-02-04T10:59:59.471Z,97925.13
2023-02-04T11:02:43.434Z,97924.66
2023-02-04T11:05:15.718Z,97925.72
2023-02-04T11:07:44.198Z,97923.44
2023-02-04T11:10:16.913Z,97920.16
2023-02-04T11:12:47.671Z,97926.09
2023-02-04T11:15:38.937Z,97930.66
2023-02-04T11:18:08.999Z,97932.84
2023-02-04T11:20:39.919Z,97927.09
2023-02-04T11:23:29.881Z,97924.56
2023-02-04T11:26:07.649Z,97931.00
2023-02-04T11:28:57.522Z,97925.94
2023-02-04T11:31:43.974Z,97911.06
2023-02-04T11:34:26.689Z,97900.09
2023-02-04T11:37:12.259Z,97911.50
2023-02-04T11:39:42.410Z,97914.44
2023-02-04T11:42:34.206Z,97909.78
2023-02-04T11:45:04.351Z,97920.97
2023-02-04T11:47:36.915Z,97909.22
2023-02-04T11:50:13.334Z,97911.16
2023-02-04T11:52:42.380Z,97912.75
2023-02-04T11:55:12.123Z,97900.53
2023-02-04T11:57:42.609Z,97909.22
2023-02-04T12:00:15.606Z,97902.41
2023-02-04T12:02:46.418Z,97890.16
2023-02-04T12:05:16.152Z,97895.41
2023-02-04T12:07:45.125Z,97892.19
2023-02-04T12:10:15.768Z,97891.78
2023-02-04T12:12:46.170Z,97886.28
2023-02-04T12:15:19.054Z,97893.97
2023-02-04T12:17:47.864Z,97890.03
2023-02-04T12:20:16.422Z,97897.38
2023-02-04T12:22:44.852Z,97890.72
2023-02-04T12:25:16.833Z,97899.41
2023-02-04T12:27:46.703Z,97889.97
2023-02-04T12:30:15.459Z,97896.44
2023-02-04T12:32:43.819Z,97890.47
2023-02-04T12:35:12.229Z,97902.53
2023-02-04T12:37:40.550Z,97902.66
2023-02-04T12:40:09.962Z,97900.41
2023-02-04T12:42:38.297Z,97899.44
2023-02-04T12:45:08.877Z,97902.22
2023-02-04T12:47:36.997Z,97899.50
2023-02-04T12:50:05.699Z,97892.38
2023-02-04T12:52:34.244Z,97898.53
2023-02-04T12:55:04.789Z,97897.75
2023-02-04T12:57:33.267Z,97904.41
2023-02-04T13:00:01.812Z,97895.66
2023-02-04T13:02:31.559Z,97895.16
2023-02-04T13:04:59.990Z,97896.25
2023-02-04T13:07:28.330Z,97896.69
2023-02-04T13:09:57.437Z,97893.09
2023-02-04T13:12:25.914Z,97884.50
2023-02-04T13:14:54.283Z,97891.56
2023-02-04T13:17:22.761Z,97893.91
2023-02-04T13:19:52.494Z,97883.22
2023-02-04T13:22:21.226Z,97888.63
2023-02-04T13:24:49.643Z,97907.69
2023-02-04T13:27:18.045Z,97907.94
2023-02-04T13:29:46.369Z,97913.66
2023-02-04T13:32:14.732Z,97915.25
2023-02-04T13:34:43.299Z,97924.09
2023-02-04T13:37:13.000Z,97927.16
2023-02-04T13:39:41.337Z,97930.19
2023-02-04T13:42:09.708Z,97941.28
2023-02-04T13:44:38.052Z,97939.28
2023-02-04T13:47:06.510Z,97937.00
2023-02-04T13:49:34.849Z,97944.66
2023-02-04T13:52:03.212Z,97952.28
2023-02-04T13:54:32.994Z,97956.09
2023-02-04T13:57:01.383Z,97963.97
2023-02-04T13:59:29.734Z,97953.09
2023-02-04T14:01:58.052Z,97959.66
2023-02-04T14:04:27.174Z,97963.09
2023-02-04T14:06:56.418Z,97963.84
2023-02-04T14:09:25.478Z,97962.28
2023-02-04T14:11:55.177Z,97968.38
2023-02-04T14:14:23.512Z,97969.25
2023-02-04T14:16:52.049Z,97973.19
2023-02-04T14:19:20.395Z,97980.31
2023-02-04T14:21:50.257Z,97968.28
2023-02-04T14:24:18.618Z,97969.59
2023-02-04T14:26:46.964Z,97973.59
2023-02-04T14:29:16.743Z,97971.47
2023-02-04T14:31:45.104Z,97983.34
2023-02-04T14:34:13.550Z,97980.34
2023-02-04T14:36:41.989Z,97974.66
2023-02-04T14:39:10.315Z,97974.75
2023-02-04T14:41:38.677Z,97969.03
2023-02-04T14:44:07.061Z,97972.13
2023-02-04T14:46:36.892Z,97975.22
2023-02-04T14:49:05.227Z,97985.88
2023-02-04T14:51:33.562Z,97983.31
2023-02-04T14:54:02.777Z,97985.38
2023-02-04T14:56:31.137Z,97985.00
2023-02-04T14:58:59.455Z,97988.34
2023-02-04T15:01:27.996Z,97991.06
2023-02-04T15:03:58.317Z,97982.38
2023-02-04T15:06:26.910Z,97987.41
2023-02-04T15:08:55.539Z,97993.69
2023-02-04T15:11:23.937Z,97990.44
2023-02-04T15:13:52.242Z,97988.28
2023-02-04T15:16:20.607Z,97988.84
2023-02-04T15:18:49.117Z,97990.75
2023-02-04T15:21:18.885Z,98000.16
2023-02-04T15:23:47.683Z,97998.78
2023-02-04T15:26:16.438Z,97999.97
2023-02-04T15:28:44.782Z,98004.59
2023-02-04T15:31:13.353Z,98002.63
2023-02-04T15:33:41.778Z,98012.50
2023-02-04T15:36:10.346Z,98009.84
2023-02-04T15:38:40.048Z,98017.88
2023-02-04T15:41:08.419Z,98025.91
2023-02-04T15:43:36.764Z,98023.56
2023-02-04T15:46:05.381Z,98022.94
2023-02-04T15:48:33.729Z,98032.47
2023-02-04T15:51:02.037Z,98038.50
2023-02-04T15:53:30.507Z,98035.47
2023-02-04T15:56:00.211Z,98041.06
2023-02-04T15:58:28.570Z,98051.13
2023-02-04T16:00:57.466Z,98050.75
2023-02-04T16:03:26.691Z,98045.38
2023-02-04T16:05:55.609Z,98054.38
2023-02-04T16:08:23.998Z,98060.09
2023-02-04T16:10:54.079Z,98050.41
2023-02-04T16:13:23.895Z,98049.47
2023-02-04T16:15:52.224Z,98051.34
2023-02-04T16:18:20.710Z,98053.66
2023-02-04T16:20:49.094Z,98054.59
2023-02-04T16:23:17.460Z,98063.97
2023-02-04T16:25:45.823Z,98057.91
2023-02-04T16:28:14.220Z,98074.34
2023-02-04T16:30:44.044Z,98067.19
2023-02-04T16:33:12.436Z,98069.66
2023-02-04T16:35:59.846Z,98071.25
2023-02-04T16:38:28.621Z,98075.53
2023-02-04T16:40:57.003Z,98083.88
2023-02-04T16:43:25.654Z,98091.00
2023-02-04T16:45:55.809Z,98086.19
2023-02-04T16:48:24.223Z,98095.84
2023-02-04T16:50:52.587Z,98096.31
2023-02-04T16:53:20.952Z,98085.91
2023-02-04T16:55:49.382Z,98089.88
2023-02-04T16:58:18.779Z,98090.13
2023-02-04T17:00:47.169Z,98095.41
2023-02-04T17:03:17.230Z,98097.09
2023-02-04T17:05:45.669Z,98097.34
2023-02-04T17:08:15.162Z,98104.22
2023-02-04T17:11:00.444Z,98109.84
2023-02-04T17:13:28.929Z,98116.13
2023-02-04T17:16:01.055Z,98113.59
2023-02-04T17:18:32.153Z,98118.97
2023-02-04T17:21:01.145Z,98122.88
2023-02-04T17:23:29.786Z,98122.75
2023-02-04T17:25:58.177Z,98132.59
2023-02-04T17:28:26.634Z,98126.06
2023-02-04T17:30:55.018Z,98128.53
2023-02-04T17:33:23.435Z,98129.28
2023-02-04T17:35:53.184Z,98130.41
2023-02-04T17:38:22.004Z,98129.66
2023-02-04T17:40:50.622Z,98137.94
2023-02-04T17:43:19.171Z,98136.88
2023-02-04T17:45:47.550Z,98134.03
2023-02-04T17:48:16.204Z,98139.47
2023-02-04T17:50:44.639Z,98135.06
2023-02-04T17:53:14.373Z,98132.53
2023-02-04T17:55:42.749Z,98136.44
2023-02-04T17:58:15.862Z,98139.75
2023-02-04T18:00:45.940Z,98142.84
2023-02-04T18:03:15.637Z,98149.41
2023-02-04T18:05:46.801Z,98148.63
2023-02-04T18:08:18.175Z,98134.72
2023-02-04T18:10:47.689Z,98144.59
2023-02-04T18:13:17.714Z,98149.56
2023-02-04T18:15:47.890Z,98149.94
2023-02-04T18:18:20.842Z,98151.22
2023-02-04T18:20:55.093Z,98148.78
2023-02-04T18:23:24.922Z,98146.13
2023-02-04T18:25:53.236Z,98146.16
2023-02-04T18:28:22.875Z,98150.00
2023-02-04T18:30:53.109Z,98149.47
2023-02-04T18:33:23.994Z,98140.28
2023-02-04T18:35:53.734Z,98144.53
2023-02-04T18:38:25.923Z,98150.75
2023-02-04T18:41:00.767Z,98145.81
2023-02-04T18:43:30.661Z,98145.19
2023-02-04T18:46:02.415Z,98152.38
2023-02-04T18:48:54.748Z,98154.50
2023-02-04T18:51:27.393Z,98154.63
2023-02-04T18:54:00.647Z,98157.22
2023-02-04T18:56:35.142Z,98156.41
2023-02-04T18:59:03.798Z,98162.16
2023-02-04T19:01:35.575Z,98156.56
2023-02-04T19:04:07.067Z,98152.56
2023-02-04T19:06:39.909Z,98159.84
2023-02-04T19:09:17.663Z,98164.97
2023-02-04T19:11:48.247Z,98168.81
2023-02-04T19:14:18.877Z,98164.75
2023-02-04T19:16:48.054Z,98165.16
2023-02-04T19:19:44.829Z,98153.81
2023-02-04T19:22:19.682Z,98156.25
2023-02-04T19:24:52.113Z,98167.66
2023-02-04T19:27:32.925Z,98158.63
2023-02-04T19:30:02.367Z,98161.00
2023-02-04T19:32:33.993Z,98163.25
2023-02-04T19:35:16.305Z,98159.97
2023-02-04T19:37:45.923Z,98160.81
2023-02-04T19:40:26.866Z,98154.88
2023-02-04T19:42:56.212Z,98163.59
2023-02-04T19:45:26.434Z,98160.59
2023-02-04T19:47:56.162Z,98155.69
2023-02-04T19:50:27.289Z,98164.94
2023-02-04T19:53:01.676Z,98158.53
2023-02-04T19:55:36.884Z,98163.03
2023-02-04T19:58:16.694Z,98162.28
2023-02-04T20:01:01.657Z,98162.31
2023-02-04T20:03:35.841Z,98157.91
2023-02-04T20:06:27.593Z,98169.75
2023-02-04T20:08:56.826Z,98160.44
2023-02-04T20:12:00.016Z,98160.56
2023-02-04T20:14:49.326Z,98164.41
2023-02-04T20:17:37.415Z,98159.78
2023-02-04T20:20:20.811Z,98167.31
2023-02-04T20:22:51.278Z,98169.97
2023-02-04T20:25:45.089Z,98166.84
2023-02-04T20:28:37.307Z,98170.31
2023-02-04T20:31:18.791Z,98182.91
2023-02-04T20:33:49.814Z,98188.63
2023-02-04T20:36:36.169Z,98181.47
2023-02-04T20:39:30.881Z,98187.22
2023-02-04T20:42:36.715Z,98193.13
2023-02-04T20:45:33.979Z,98206.13
2023-02-04T20:48:27.062Z,98201.56
2023-02-04T20:50:56.629Z,98198.09
2023-02-04T20:53:26.879Z,98206.50
2023-02-04T20:56:03.704Z,98206.66
2023-02-04T20:58:35.868Z,98200.91
2023-02-04T21:01:18.711Z,98212.19
2023-02-04T21:03:47.047Z,98209.28
2023-02-04T21:06:23.015Z,98211.00
2023-02-04T21:08:52.866Z,98219.69
2023-02-04T21:11:22.898Z,98218.09
2023-02-04T21:13:52.313Z,98216.63
2023-02-04T21:16:22.276Z,98212.16
2023-02-04T21:18:50.824Z,98217.03
2023-02-04T21:21:20.369Z,98217.78
2023-02-04T21:23:48.757Z,98213.53
2023-02-04T21:26:17.060Z,98217.47
2023-02-04T21:28:45.597Z,98217.59
2023-02-04T21:31:14.058Z,98219.41
2023-02-04T21:33:43.965Z,98227.88
2023-02-04T21:36:12.286Z,98220.41
2023-02-04T21:38:40.783Z,98219.69
2023-02-04T21:41:09.202Z,98219.13
2023-02-04T21:43:37.525Z,98230.59
2023-02-04T21:46:06.234Z,98224.84
2023-02-04T21:48:34.575Z,98221.78
2023-02-04T21:51:04.467Z,98227.28
2023-02-04T21:53:32.867Z,98226.38
2023-02-04T21:56:01.239Z,98224.94
2023-02-04T21:58:29.656Z,98224.94
2023-02-04T22:00:58.075Z,98222.31
2023-02-04T22:03:26.600Z,98226.00
2023-02-04T22:05:54.963Z,98235.13
2023-02-04T22:08:24.713Z,98232.38
2023-02-04T22:10:53.067Z,98236.16
2023-02-04T22:13:21.368Z,98235.97
2023-02-04T22:15:49.726Z,98241.22
2023-02-04T22:18:18.091Z,98234.06
2023-02-04T22:20:46.439Z,98231.91
2023-02-04T22:23:16.608Z,98236.50
2023-02-04T22:25:46.332Z,98238.00
2023-02-04T22:28:14.753Z,98241.50
2023-02-04T22:30:43.148Z,98246.16
2023-02-04T22:33:14.078Z,98241.31
2023-02-04T22:35:42.469Z,98245.41
2023-02-04T22:38:10.807Z,98242.13
2023-02-04T22:40:39.185Z,98238.09
2023-02-04T22:43:08.868Z,98240.56
2023-02-04T22:45:37.202Z,98240.34
2023-02-04T22:48:05.593Z,98242.47
2023-02-04T22:50:34.104Z,98245.16
2023-02-04T22:53:02.402Z,98243.34
2023-02-04T22:55:30.771Z,98249.13
2023-02-04T22:57:59.154Z,98242.69
2023-02-04T23:00:28.908Z,98238.13
2023-02-04T23:02:57.252Z,98233.16
2023-02-04T23:05:25.659Z,98231.38
2023-02-04T23:07:53.952Z,98224.91
2023-02-04T23:10:22.352Z,98221.22
2023-02-04T23:12:50.662Z,98221.97
2023-02-04T23:15:19.330Z,98219.69
2023-02-04T23:17:49.064Z,98222.81
2023-02-04T23:20:17.902Z,98220.97
2023-02-04T23:22:46.209Z,98228.09
2023-02-04T23:25:14.540Z,98222.84
2023-02-04T23:27:42.964Z,98230.78
2023-02-04T23:30:12.409Z,98235.34
2023-02-04T23:32:40.720Z,98230.56
2023-02-04T23:35:10.528Z,98228.53
2023-02-04T23:37:38.853Z,98231.31
2023-02-04T23:40:08.008Z,98232.47
2023-02-04T23:42:36.377Z,98237.13
2023-02-04T23:45:05.146Z,98240.44
2023-02-04T23:47:33.600Z,98241.91
2023-02-04T23:50:01.924Z,98234.63
2023-02-04T23:52:31.633Z,98229.59
2023-02-04T23:55:01.321Z,98231.19
2023-02-04T23:57:30.554Z,98236.13
2023-02-04T23:59:58.861Z,98230.19
